Time;durP1;ratioP1;P1;durP2;ratioP2;P2;SDS_P1;SDS_P2;PMS_P1;PMS_P2;Temp;Humidity;BMP_temperature;BMP_pressure;BME280_temperature;BME280_humidity;BME280_pressure;Samples;Min_cycle;Max_cycle;Signal;HPM_P1;HPM_P2
2023/03/09 00:03:22;;;;;;;0.70;0.70;;;;;;;;;;8235877;28;20041;-63
2023/03/09 00:07:23;;;;;;;0.60;0.60;;;;;;;;;;8233171;28;20061;-63
2023/03/09 00:11:24;;;;;;;1.75;0.80;;;;;;;;;;8229472;28;20033;-63
2023/03/09 00:15:24;;;;;;;1.90;0.70;;;;;;;;;;8229351;28;20065;-63
2023/03/09 00:19:27;;;;;;;0.70;0.70;;;;;;;;;;8227023;28;20041;-63
2023/03/09 00:23:27;;;;;;;0.50;0.50;;;;;;;;;;8232437;28;20031;-63
2023/03/09 00:27:28;;;;;;;0.88;0.60;;;;;;;;;;8235647;28;20567;-63
2023/03/09 00:31:28;;;;;;;0.60;0.60;;;;;;;;;;8234551;28;20043;-63
2023/03/09 00:35:28;;;;;;;0.60;0.50;;;;;;;;;;8233635;28;20031;-63
2023/03/09 00:39:28;;;;;;;0.68;0.55;;;;;;;;;;8237813;28;20053;-63
2023/03/09 00:43:28;;;;;;;1.33;0.60;;;;;;;;;;8236356;28;20057;-63
2023/03/09 00:47:28;;;;;;;2.35;0.70;;;;;;;;;;8232437;28;20034;-63
2023/03/09 00:51:29;;;;;;;1.48;0.50;;;;;;;;;;8235891;28;20034;-63
2023/03/09 00:55:29;;;;;;;1.45;0.63;;;;;;;;;;8234134;28;20030;-63
2023/03/09 00:59:29;;;;;;;0.98;0.52;;;;;;;;;;8230631;28;20030;-63
2023/03/09 01:03:29;;;;;;;0.50;0.50;;;;;;;;;;8236339;28;20113;-63
2023/03/09 01:07:31;;;;;;;0.60;0.60;;;;;;;;;;8237217;28;20117;-63
2023/03/09 01:11:32;;;;;;;0.95;0.50;;;;;;;;;;8234608;28;20679;-63
2023/03/09 01:15:32;;;;;;;0.80;0.60;;;;;;;;;;8229320;28;20483;-63
2023/03/09 01:19:32;;;;;;;2.78;0.80;;;;;;;;;;8232725;28;20297;-63
2023/03/09 01:23:33;;;;;;;0.98;0.70;;;;;;;;;;8227515;28;20044;-63
2023/03/09 01:27:33;;;;;;;2.65;0.90;;;;;;;;;;8226595;28;20021;-63
2023/03/09 01:31:33;;;;;;;2.80;1.10;;;;;;;;;;8228559;28;20133;-63
2023/03/09 01:35:33;;;;;;;1.58;0.85;;;;;;;;;;8233760;28;20768;-63
2023/03/09 01:39:34;;;;;;;1.48;0.90;;;;;;;;;;8231365;28;20109;-63
2023/03/09 01:43:34;;;;;;;1.50;1.20;;;;;;;;;;8233168;28;20118;-63
2023/03/09 01:47:34;;;;;;;2.67;1.40;;;;;;;;;;8234081;28;20105;-63
2023/03/09 01:51:54;;;;;;;1.20;1.10;;;;;;;;;;8234021;28;20036;-63
2023/03/09 01:55:55;;;;;;;2.20;1.20;;;;;;;;;;8233850;28;20164;-63
2023/03/09 01:59:58;;;;;;;1.92;1.35;;;;;;;;;;8235156;28;20022;-63
2023/03/09 02:04:02;;;;;;;2.97;1.48;;;;;;;;;;8230733;28;20091;-63
2023/03/09 02:08:02;;;;;;;;;;;;;;;;;;8229929;28;20038;-63
2023/03/09 02:12:02;;;;;;;2.00;1.42;;;;;;;;;;8232514;28;19921;-63
2023/03/09 02:16:03;;;;;;;2.25;1.45;;;;;;;;;;8230901;28;20377;-63
2023/03/09 02:20:09;;;;;;;3.33;1.13;;;;;;;;;;8234757;28;20026;-63
2023/03/09 02:24:16;;;;;;;4.03;1.40;;;;;;;;;;8230717;28;20026;-63
2023/03/09 02:28:16;;;;;;;1.20;1.10;;;;;;;;;;8232009;28;20033;-63
2023/03/09 02:32:17;;;;;;;0.95;0.90;;;;;;;;;;8232902;28;20236;-63
2023/03/09 02:36:18;;;;;;;1.00;0.95;;;;;;;;;;8232397;28;20436;-63
2023/03/09 02:40:33;;;;;;;1.77;0.90;;;;;;;;;;8231264;28;20026;-63
2023/03/09 02:44:33;;;;;;;1.50;0.80;;;;;;;;;;8233457;28;20273;-63
2023/03/09 02:48:33;;;;;;;3.08;0.90;;;;;;;;;;8231075;28;20065;-63
2023/03/09 02:52:33;;;;;;;1.40;0.73;;;;;;;;;;8231991;28;20033;-63
2023/03/09 02:56:34;;;;;;;1.98;0.90;;;;;;;;;;8231486;28;20030;-63
2023/03/09 03:00:34;;;;;;;2.05;1.02;;;;;;;;;;8230392;28;20033;-63
2023/03/09 03:04:34;;;;;;;1.40;0.70;;;;;;;;;;8228810;28;20097;-63
2023/03/09 03:08:35;;;;;;;1.23;0.70;;;;;;;;;;8234747;28;20361;-63
2023/03/09 03:12:35;;;;;;;1.88;0.70;;;;;;;;;;8228930;28;20312;-63
2023/03/09 03:16:35;;;;;;;1.17;0.80;;;;;;;;;;8230483;28;20042;-63
2023/03/09 03:20:35;;;;;;;1.23;0.63;;;;;;;;;;8229067;28;20357;-63
2023/03/09 03:24:36;;;;;;;2.90;0.98;;;;;;;;;;8228869;28;20595;-63
2023/03/09 03:28:37;;;;;;;1.20;0.70;;;;;;;;;;8227993;28;20022;-63
2023/03/09 03:32:37;;;;;;;2.10;0.70;;;;;;;;;;8225983;28;20050;-63
2023/03/09 03:36:37;;;;;;;1.40;0.80;;;;;;;;;;8229523;28;20029;-63
2023/03/09 03:40:37;;;;;;;1.73;1.00;;;;;;;;;;8224742;28;20423;-63
2023/03/09 03:44:38;;;;;;;1.65;0.80;;;;;;;;;;8229612;28;20671;-63
2023/03/09 03:48:38;;;;;;;1.58;0.80;;;;;;;;;;8226789;28;20074;-63
2023/03/09 03:52:38;;;;;;;1.75;0.70;;;;;;;;;;8230233;28;20137;-63
2023/03/09 03:56:38;;;;;;;2.13;0.80;;;;;;;;;;8227592;28;20022;-63
2023/03/09 04:00:38;;;;;;;2.60;1.15;;;;;;;;;;8232319;28;20038;-63
2023/03/09 04:04:39;;;;;;;3.97;1.25;;;;;;;;;;8231084;28;20025;-63
2023/03/09 04:08:39;;;;;;;3.45;0.93;;;;;;;;;;8229959;28;20057;-64
2023/03/09 04:12:39;;;;;;;2.53;1.03;;;;;;;;;;8233016;28;20026;-62
2023/03/09 04:16:39;;;;;;;2.42;1.10;;;;;;;;;;8232814;28;20405;-63
2023/03/09 04:20:40;;;;;;;4.13;1.13;;;;;;;;;;8235807;28;20082;-63
2023/03/09 04:24:40;;;;;;;4.72;1.13;;;;;;;;;;8217159;28;20018;-63
2023/03/09 04:28:40;;;;;;;3.70;1.02;;;;;;;;;;8234402;28;20030;-63
2023/03/09 04:32:40;;;;;;;4.53;1.20;;;;;;;;;;8230223;28;20490;-63
2023/03/09 04:36:40;;;;;;;5.63;1.70;;;;;;;;;;8232646;28;20030;-63
2023/03/09 04:40:41;;;;;;;5.50;1.25;;;;;;;;;;8229613;28;20053;-63
2023/03/09 04:44:41;;;;;;;5.45;1.38;;;;;;;;;;8235425;28;20769;-63
2023/03/09 04:48:41;;;;;;;4.85;1.20;;;;;;;;;;8229689;28;20031;-63
2023/03/09 04:52:41;;;;;;;1.92;0.90;;;;;;;;;;8232830;28;20074;-63
2023/03/09 04:56:41;;;;;;;5.13;1.50;;;;;;;;;;8233289;28;20121;-63
2023/03/09 05:00:42;;;;;;;3.88;1.30;;;;;;;;;;8229805;28;20133;-63
2023/03/09 05:04:42;;;;;;;7.85;2.28;;;;;;;;;;8230902;28;20573;-63
2023/03/09 05:08:42;;;;;;;6.57;1.70;;;;;;;;;;8229159;28;20133;-63
2023/03/09 05:12:42;;;;;;;9.98;1.85;;;;;;;;;;8227759;28;20101;-63
2023/03/09 05:16:43;;;;;;;6.60;1.75;;;;;;;;;;8228062;28;20439;-63
2023/03/09 05:20:43;;;;;;;13.32;2.33;;;;;;;;;;8234098;28;20047;-63
2023/03/09 05:24:43;;;;;;;9.73;1.60;;;;;;;;;;8228951;28;20032;-63
2023/03/09 05:28:43;;;;;;;12.52;2.30;;;;;;;;;;8230800;28;20029;-63
2023/03/09 05:32:43;;;;;;;11.40;2.20;;;;;;;;;;8227770;28;20410;-63
2023/03/09 05:36:43;;;;;;;9.90;2.20;;;;;;;;;;8231060;28;20110;-63
2023/03/09 05:40:44;;;;;;;11.40;2.38;;;;;;;;;;8234945;28;20026;-63
2023/03/09 05:44:44;;;;;;;12.77;2.80;;;;;;;;;;8232034;28;20152;-63
2023/03/09 05:48:48;;;;;;;10.77;2.58;;;;;;;;;;8232326;28;20038;-63
2023/03/09 05:52:48;;;;;;;9.80;3.37;;;;;;;;;;8233957;28;20094;-63
2023/03/09 05:56:48;;;;;;;14.68;4.63;;;;;;;;;;8234965;28;20285;-63
2023/03/09 06:00:52;;;;;;;6.15;3.15;;;;;;;;;;8233418;28;20034;-64
2023/03/09 06:04:52;;;;;;;12.82;3.10;;;;;;;;;;8233443;28;20018;-63
2023/03/09 06:08:52;;;;;;;10.02;2.90;;;;;;;;;;8232282;28;20038;-64
2023/03/09 06:12:52;;;;;;;10.95;2.50;;;;;;;;;;8225149;28;20038;-63
2023/03/09 06:16:53;;;;;;;7.38;2.22;;;;;;;;;;8228775;28;20043;-63
2023/03/09 06:20:53;;;;;;;9.93;2.88;;;;;;;;;;8233514;28;20026;-63
2023/03/09 06:24:53;;;;;;;9.82;2.75;;;;;;;;;;8227983;28;20132;-63
2023/03/09 06:28:53;;;;;;;8.20;2.70;;;;;;;;;;8229659;28;20037;-63
2023/03/09 06:32:54;;;;;;;7.55;2.80;;;;;;;;;;8226968;28;20537;-63
2023/03/09 06:36:54;;;;;;;10.77;2.97;;;;;;;;;;8232465;28;20904;-64
2023/03/09 06:40:55;;;;;;;8.18;2.78;;;;;;;;;;8228483;28;20030;-63
2023/03/09 06:44:55;;;;;;;6.95;3.15;;;;;;;;;;8232043;28;20128;-63
2023/03/09 06:48:55;;;;;;;8.80;2.75;;;;;;;;;;8230408;28;20089;-63
2023/03/09 06:52:55;;;;;;;7.30;2.50;;;;;;;;;;8232782;28;20090;-63
2023/03/09 06:56:56;;;;;;;6.50;2.50;;;;;;;;;;8229793;28;20033;-63
2023/03/09 07:00:56;;;;;;;5.82;2.45;;;;;;;;;;8232774;28;20041;-63
2023/03/09 07:04:56;;;;;;;6.85;2.17;;;;;;;;;;8233127;28;20037;-63
2023/03/09 07:08:57;;;;;;;6.95;2.22;;;;;;;;;;8228774;28;20455;-63
2023/03/09 07:12:57;;;;;;;5.90;2.03;;;;;;;;;;8233159;28;20487;-63
2023/03/09 07:16:57;;;;;;;4.18;1.70;;;;;;;;;;8229106;28;20042;-63
2023/03/09 07:20:59;;;;;;;2.78;1.60;;;;;;;;;;8232026;28;20049;-64
2023/03/09 07:24:59;;;;;;;5.38;1.63;;;;;;;;;;8228817;28;20085;-63
2023/03/09 07:29:00;;;;;;;4.70;1.90;;;;;;;;;;8231395;28;20534;-63
2023/03/09 07:33:00;;;;;;;3.92;1.67;;;;;;;;;;8233572;28;20045;-63
2023/03/09 07:37:00;;;;;;;3.60;1.75;;;;;;;;;;8232580;28;20034;-64
2023/03/09 07:41:01;;;;;;;3.17;1.88;;;;;;;;;;8233674;28;20066;-64
2023/03/09 07:45:01;;;;;;;3.70;1.80;;;;;;;;;;8233858;28;20057;-63
2023/03/09 07:49:01;;;;;;;2.97;1.37;;;;;;;;;;8233181;28;20046;-63
2023/03/09 07:53:01;;;;;;;2.75;1.50;;;;;;;;;;8236651;28;21571;-63
2023/03/09 07:57:02;;;;;;;3.92;1.50;;;;;;;;;;8231916;28;20427;-63
2023/03/09 08:01:03;;;;;;;6.18;1.70;;;;;;;;;;8233521;28;20039;-63
2023/03/09 08:05:04;;;;;;;6.78;1.88;;;;;;;;;;8235791;28;20048;-64
2023/03/09 08:09:06;;;;;;;6.35;2.10;;;;;;;;;;8235568;28;20054;-63
2023/03/09 08:13:06;;;;;;;6.40;1.83;;;;;;;;;;8230436;28;20049;-63
2023/03/09 08:17:06;;;;;;;5.35;1.70;;;;;;;;;;8232344;28;20124;-63
2023/03/09 08:21:07;;;;;;;8.48;1.90;;;;;;;;;;8232806;28;20027;-63
2023/03/09 08:25:08;;;;;;;7.65;1.98;;;;;;;;;;8229427;28;20517;-64
2023/03/09 08:29:08;;;;;;;6.57;1.95;;;;;;;;;;8234156;28;20030;-63
2023/03/09 08:33:08;;;;;;;7.93;2.42;;;;;;;;;;8232769;28;20535;-63
2023/03/09 08:37:08;;;;;;;9.05;2.67;;;;;;;;;;8234400;28;20080;-63
2023/03/09 08:41:09;;;;;;;8.40;2.47;;;;;;;;;;8234721;28;20081;-64
2023/03/09 08:45:10;;;;;;;5.03;2.47;;;;;;;;;;8237738;28;20018;-64
2023/03/09 08:49:10;;;;;;;6.15;2.35;;;;;;;;;;8242278;28;20356;-63
2023/03/09 08:53:10;;;;;;;6.68;2.08;;;;;;;;;;8237866;28;20602;-63
2023/03/09 08:57:11;;;;;;;8.55;2.35;;;;;;;;;;8239714;28;20023;-63
2023/03/09 09:01:11;;;;;;;8.35;1.90;;;;;;;;;;8238521;28;20046;-63
2023/03/09 09:05:11;;;;;;;9.00;2.03;;;;;;;;;;8239546;28;20610;-63
2023/03/09 09:09:11;;;;;;;10.85;2.58;;;;;;;;;;8237545;28;20617;-64
2023/03/09 09:13:11;;;;;;;10.23;2.55;;;;;;;;;;8234959;28;20026;-63
2023/03/09 09:17:12;;;;;;;8.60;2.20;;;;;;;;;;8237581;28;20112;-63
2023/03/09 09:21:14;;;;;;;12.40;2.53;;;;;;;;;;8235742;28;20120;-64
2023/03/09 09:25:14;;;;;;;8.05;2.20;;;;;;;;;;8236533;28;21291;-63
2023/03/09 09:29:14;;;;;;;8.60;2.40;;;;;;;;;;8235904;28;20029;-63
2023/03/09 09:33:14;;;;;;;8.25;2.10;;;;;;;;;;8237565;28;20108;-63
2023/03/09 09:37:15;;;;;;;10.30;2.40;;;;;;;;;;8238475;28;20601;-63
2023/03/09 09:41:24;;;;;;;7.80;2.25;;;;;;;;;;8237952;28;20023;-63
2023/03/09 09:45:35;;;;;;;9.52;2.42;;;;;;;;;;8236136;28;20781;-63
2023/03/09 09:49:41;;;;;;;12.75;2.58;;;;;;;;;;8233507;28;20707;-64
2023/03/09 09:53:41;;;;;;;10.98;2.58;;;;;;;;;;8237821;28;20033;-64
2023/03/09 09:57:43;;;;;;;12.27;2.38;;;;;;;;;;8236902;28;20027;-63
2023/03/09 10:01:48;;;;;;;12.25;2.58;;;;;;;;;;8236011;28;20086;-63
2023/03/09 10:05:51;;;;;;;9.88;2.10;;;;;;;;;;8234553;28;20025;-63
2023/03/09 10:09:54;;;;;;;7.20;1.85;;;;;;;;;;8237519;28;20030;-63
2023/03/09 10:13:58;;;;;;;11.73;2.35;;;;;;;;;;8238558;28;20034;-63
2023/03/09 10:17:58;;;;;;;;;;;;;;;;;;8236897;28;20193;-63
2023/03/09 10:22:04;;;;;;;8.38;1.92;;;;;;;;;;8235092;28;19918;-63
2023/03/09 10:26:13;;;;;;;5.68;1.80;;;;;;;;;;8234467;28;20724;-63
2023/03/09 10:30:14;;;;;;;5.47;1.80;;;;;;;;;;8234989;28;20026;-63
2023/03/09 10:34:19;;;;;;;7.38;1.80;;;;;;;;;;8238714;28;20075;-63
2023/03/09 10:38:20;;;;;;;7.80;1.70;;;;;;;;;;8235245;28;20117;-63
2023/03/09 10:42:22;;;;;;;2.95;1.20;;;;;;;;;;8230871;28;20500;-63
2023/03/09 10:46:23;;;;;;;4.88;1.40;;;;;;;;;;8237224;28;20042;-63
2023/03/09 10:50:28;;;;;;;5.07;1.30;;;;;;;;;;8233915;28;20069;-63
2023/03/09 10:54:32;;;;;;;4.68;1.60;;;;;;;;;;8238551;28;20026;-63
2023/03/09 10:58:33;;;;;;;4.75;1.25;;;;;;;;;;8237610;28;20274;-63
2023/03/09 11:02:35;;;;;;;4.40;1.35;;;;;;;;;;8230701;28;20056;-63
2023/03/09 11:06:37;;;;;;;6.45;1.65;;;;;;;;;;8229960;28;20025;-63
2023/03/09 11:10:37;;;;;;;4.30;1.65;;;;;;;;;;8233033;28;20197;-64
2023/03/09 11:14:42;;;;;;;4.78;1.77;;;;;;;;;;8234790;28;20038;-63
2023/03/09 11:18:43;;;;;;;6.13;1.58;;;;;;;;;;8229159;28;20698;-63
2023/03/09 11:22:45;;;;;;;6.03;1.63;;;;;;;;;;8231964;28;20157;-63
2023/03/09 11:27:05;;;;;;;5.13;1.70;;;;;;;;;;8232342;28;20682;-63
2023/03/09 11:31:14;;;;;;;9.43;1.63;;;;;;;;;;8231949;28;20038;-63
2023/03/09 11:35:15;;;;;;;9.27;2.22;;;;;;;;;;8231359;28;20709;-63
2023/03/09 11:39:25;;;;;;;7.10;1.75;;;;;;;;;;8231498;28;20053;-64
2023/03/09 11:43:34;;;;;;;5.70;1.60;;;;;;;;;;8233767;28;20155;-63
2023/03/09 11:47:41;;;;;;;6.30;1.92;;;;;;;;;;8228668;28;20202;-63
2023/03/09 11:51:43;;;;;;;10.18;2.10;;;;;;;;;;8233559;28;20034;-64
2023/03/09 11:55:49;;;;;;;6.60;1.75;;;;;;;;;;8234018;28;20027;-63
2023/03/09 11:59:58;;;;;;;7.97;2.25;;;;;;;;;;8231545;28;20030;-64
2023/03/09 12:04:00;;;;;;;7.05;1.90;;;;;;;;;;8234068;28;20830;-63
2023/03/09 12:08:14;;;;;;;9.20;1.98;;;;;;;;;;8234103;28;20806;-64
2023/03/09 12:12:29;;;;;;;8.75;1.80;;;;;;;;;;8234550;28;20531;-63
2023/03/09 12:16:33;;;;;;;10.18;2.67;;;;;;;;;;8234224;28;20045;-63
2023/03/09 12:20:40;;;;;;;8.60;2.45;;;;;;;;;;8238392;28;20084;-63
2023/03/09 12:24:43;;;;;;;6.28;1.92;;;;;;;;;;8233658;28;20053;-63
2023/03/09 12:28:43;;;;;;;6.13;2.17;;;;;;;;;;8239445;28;20141;-63
2023/03/09 12:32:43;;;;;;;5.50;1.90;;;;;;;;;;8236374;28;20062;-63
2023/03/09 12:36:43;;;;;;;8.32;2.20;;;;;;;;;;8239881;28;20035;-63
2023/03/09 12:40:44;;;;;;;5.45;2.00;;;;;;;;;;8237352;28;20026;-63
2023/03/09 12:44:44;;;;;;;7.68;2.20;;;;;;;;;;8239150;28;20184;-63
2023/03/09 12:48:45;;;;;;;5.28;2.03;;;;;;;;;;8237261;28;20049;-64
2023/03/09 12:52:46;;;;;;;8.52;1.80;;;;;;;;;;8240050;28;20145;-64
2023/03/09 12:56:46;;;;;;;7.53;1.83;;;;;;;;;;8238470;28;20022;-63
2023/03/09 13:00:59;;;;;;;7.33;1.83;;;;;;;;;;8237262;28;20961;-63
2023/03/09 13:05:19;;;;;;;6.47;1.83;;;;;;;;;;8234686;28;20652;-64
2023/03/09 13:09:21;;;;;;;6.55;1.63;;;;;;;;;;8236655;28;20026;-63
2023/03/09 13:13:38;;;;;;;4.90;1.48;;;;;;;;;;8237322;28;20031;-63
2023/03/09 13:17:38;;;;;;;10.73;1.92;;;;;;;;;;8233034;28;20360;-63
2023/03/09 13:21:43;;;;;;;5.15;1.83;;;;;;;;;;8233736;28;20027;-63
2023/03/09 13:25:50;;;;;;;8.27;2.35;;;;;;;;;;8235029;28;20029;-64
2023/03/09 13:30:00;;;;;;;6.30;2.20;;;;;;;;;;8235736;28;20117;-63
2023/03/09 13:34:00;;;;;;;10.57;2.47;;;;;;;;;;8232972;28;20173;-63
2023/03/09 13:38:01;;;;;;;8.07;2.27;;;;;;;;;;8235482;28;20030;-63
2023/03/09 13:42:05;;;;;;;6.57;2.17;;;;;;;;;;8231750;28;20304;-63
2023/03/09 13:46:06;;;;;;;6.68;1.60;;;;;;;;;;8235715;28;20042;-63
2023/03/09 13:50:15;;;;;;;7.32;1.77;;;;;;;;;;8234351;28;20057;-63
2023/03/09 13:54:24;;;;;;;7.25;1.90;;;;;;;;;;8236389;28;20022;-63
2023/03/09 13:58:25;;;;;;;8.27;1.98;;;;;;;;;;8226477;28;20137;-63
2023/03/09 14:02:26;;;;;;;5.95;1.80;;;;;;;;;;8230788;28;21804;-63
2023/03/09 14:06:36;;;;;;;4.47;1.70;;;;;;;;;;8237660;28;20125;-63
2023/03/09 14:10:38;;;;;;;7.32;1.60;;;;;;;;;;8232193;28;20064;-63
2023/03/09 14:14:38;;;;;;;6.97;1.70;;;;;;;;;;8233034;28;20077;-63
2023/03/09 14:18:42;;;;;;;8.93;1.90;;;;;;;;;;8230340;28;20038;-63
2023/03/09 14:22:42;;;;;;;8.40;2.00;;;;;;;;;;8231263;28;20049;-64
2023/03/09 14:26:45;;;;;;;5.63;1.80;;;;;;;;;;8232917;28;20903;-63
2023/03/09 14:30:46;;;;;;;7.82;2.13;;;;;;;;;;8233377;28;20042;-63
2023/03/09 14:34:46;;;;;;;7.15;1.90;;;;;;;;;;8230678;28;20243;-63
2023/03/09 14:38:54;;;;;;;5.43;2.20;;;;;;;;;;8233712;28;20034;-63
2023/03/09 14:43:14;;;;;;;8.98;2.53;;;;;;;;;;8234588;28;20117;-63
2023/03/09 14:47:16;;;;;;;11.15;2.40;;;;;;;;;;8229788;28;20046;-64
2023/03/09 14:51:21;;;;;;;8.27;2.42;;;;;;;;;;8231352;28;20026;-63
2023/03/09 14:55:22;;;;;;;11.15;2.47;;;;;;;;;;8228811;28;20034;-64
2023/03/09 14:59:22;;;;;;;11.52;2.38;;;;;;;;;;8231895;28;20026;-64
2023/03/09 15:03:22;;;;;;;8.77;2.17;;;;;;;;;;8231772;28;20049;-63
2023/03/09 15:07:22;;;;;;;12.50;3.05;;;;;;;;;;8234192;28;20022;-64
2023/03/09 15:11:22;;;;;;;10.70;2.72;;;;;;;;;;8230283;28;20031;-63
2023/03/09 15:15:24;;;;;;;10.25;2.40;;;;;;;;;;8230933;28;20052;-63
2023/03/09 15:19:25;;;;;;;9.15;2.33;;;;;;;;;;8232339;28;20030;-64
2023/03/09 15:23:25;;;;;;;6.70;1.83;;;;;;;;;;8227122;28;20106;-64
2023/03/09 15:27:25;;;;;;;11.88;2.60;;;;;;;;;;8231111;28;20068;-63
2023/03/09 15:31:25;;;;;;;15.10;2.45;;;;;;;;;;8228211;28;20049;-63
2023/03/09 15:35:25;;;;;;;10.90;2.55;;;;;;;;;;8228501;28;20026;-63
2023/03/09 15:39:25;;;;;;;13.57;2.88;;;;;;;;;;8225861;28;20026;-63
2023/03/09 15:43:26;;;;;;;13.13;2.65;;;;;;;;;;8228866;28;20026;-63
2023/03/09 15:47:26;;;;;;;10.82;2.42;;;;;;;;;;8227987;28;20248;-64
2023/03/09 15:51:26;;;;;;;11.88;2.60;;;;;;;;;;8227154;28;20146;-63
2023/03/09 15:55:29;;;;;;;10.90;2.20;;;;;;;;;;8235788;28;20034;-64
2023/03/09 15:59:29;;;;;;;10.60;2.53;;;;;;;;;;8236611;28;20030;-63
2023/03/09 16:03:30;;;;;;;14.02;2.65;;;;;;;;;;8235613;28;20491;-63
2023/03/09 16:07:31;;;;;;;12.63;3.05;;;;;;;;;;8236908;28;20798;-64
2023/03/09 16:11:31;;;;;;;10.68;2.72;;;;;;;;;;8235857;28;20037;-63
2023/03/09 16:15:31;;;;;;;13.05;2.78;;;;;;;;;;8235037;28;20038;-64
2023/03/09 16:19:31;;;;;;;12.57;2.65;;;;;;;;;;8236473;28;20786;-63
2023/03/09 16:23:32;;;;;;;12.27;2.65;;;;;;;;;;8236634;28;20812;-63
2023/03/09 16:27:32;;;;;;;10.60;2.60;;;;;;;;;;8235462;28;20423;-63
2023/03/09 16:31:32;;;;;;;11.00;2.67;;;;;;;;;;8235327;28;20415;-63
2023/03/09 16:35:33;;;;;;;11.70;2.50;;;;;;;;;;8236988;28;20756;-63
2023/03/09 16:39:33;;;;;;;12.15;2.78;;;;;;;;;;8238663;28;20025;-64
2023/03/09 16:43:33;;;;;;;14.80;2.97;;;;;;;;;;8237662;28;20403;-63
2023/03/09 16:47:35;;;;;;;15.13;3.00;;;;;;;;;;8236862;28;20057;-63
2023/03/09 16:51:36;;;;;;;12.73;3.22;;;;;;;;;;8235937;28;20096;-64
2023/03/09 16:55:36;;;;;;;9.73;1.90;;;;;;;;;;8232099;28;20030;-63
2023/03/09 16:59:36;;;;;;;9.93;2.53;;;;;;;;;;8232497;28;20049;-64
2023/03/09 17:03:36;;;;;;;16.05;2.90;;;;;;;;;;8233509;28;20113;-64
2023/03/09 17:07:36;;;;;;;10.07;2.30;;;;;;;;;;8231997;28;20033;-64
2023/03/09 17:11:37;;;;;;;13.82;2.67;;;;;;;;;;8223299;28;20136;-63
2023/03/09 17:15:37;;;;;;;17.23;2.92;;;;;;;;;;8233890;28;20181;-63
2023/03/09 17:19:37;;;;;;;10.18;2.45;;;;;;;;;;8232868;28;20037;-63
2023/03/09 17:23:38;;;;;;;13.93;2.47;;;;;;;;;;8230677;28;20088;-63
2023/03/09 17:27:38;;;;;;;10.13;2.30;;;;;;;;;;8231724;28;20030;-63
2023/03/09 17:31:38;;;;;;;12.35;3.22;;;;;;;;;;8231461;28;20093;-63
2023/03/09 17:35:39;;;;;;;12.45;2.50;;;;;;;;;;8232427;28;20035;-63
2023/03/09 17:39:39;;;;;;;9.85;2.58;;;;;;;;;;8227855;28;20033;-64
2023/03/09 17:43:39;;;;;;;11.75;2.40;;;;;;;;;;8237930;28;20022;-63
2023/03/09 17:47:39;;;;;;;13.43;2.60;;;;;;;;;;8235546;28;20069;-63
2023/03/09 17:51:40;;;;;;;11.07;2.40;;;;;;;;;;8228621;28;20037;-63
2023/03/09 17:55:40;;;;;;;9.68;2.53;;;;;;;;;;8234014;28;20037;-63
2023/03/09 17:59:40;;;;;;;12.77;2.37;;;;;;;;;;8229809;28;20034;-63
2023/03/09 18:03:40;;;;;;;10.70;2.70;;;;;;;;;;8231681;28;20285;-63
2023/03/09 18:07:41;;;;;;;12.38;2.85;;;;;;;;;;8232243;28;20030;-63
2023/03/09 18:11:41;;;;;;;9.40;2.00;;;;;;;;;;8235571;28;20022;-63
2023/03/09 18:15:41;;;;;;;10.73;2.23;;;;;;;;;;8227662;28;20138;-63
2023/03/09 18:19:41;;;;;;;12.50;3.03;;;;;;;;;;8232614;28;20021;-63
2023/03/09 18:23:44;;;;;;;10.95;2.20;;;;;;;;;;8233552;28;20063;-63
2023/03/09 18:27:44;;;;;;;10.63;2.50;;;;;;;;;;8231645;28;20026;-63
2023/03/09 18:31:44;;;;;;;10.70;2.10;;;;;;;;;;8231591;28;20045;-63
2023/03/09 18:35:45;;;;;;;7.72;2.10;;;;;;;;;;8234112;28;20026;-63
2023/03/09 18:39:45;;;;;;;14.55;3.00;;;;;;;;;;8237241;28;20703;-63
2023/03/09 18:43:48;;;;;;;9.55;2.72;;;;;;;;;;8231944;28;20111;-63
2023/03/09 18:47:48;;;;;;;12.60;2.53;;;;;;;;;;8231062;28;20474;-63
2023/03/09 18:51:48;;;;;;;10.48;2.10;;;;;;;;;;8235721;28;20025;-63
2023/03/09 18:55:53;;;;;;;12.38;2.70;;;;;;;;;;8233131;28;20117;-63
2023/03/09 18:59:53;;;;;;;12.02;2.17;;;;;;;;;;8230982;28;20041;-63
2023/03/09 19:03:57;;;;;;;8.65;2.03;;;;;;;;;;8233437;28;20026;-63
2023/03/09 19:07:58;;;;;;;7.68;2.13;;;;;;;;;;8234208;28;20031;-63
2023/03/09 19:11:59;;;;;;;8.93;2.13;;;;;;;;;;8232972;28;20026;-63
2023/03/09 19:16:02;;;;;;;9.05;2.20;;;;;;;;;;8231415;28;20340;-63
2023/03/09 19:20:03;;;;;;;8.15;1.88;;;;;;;;;;8232335;28;21059;-63
2023/03/09 19:24:04;;;;;;;6.35;1.98;;;;;;;;;;8231952;28;20145;-63
2023/03/09 19:28:05;;;;;;;7.22;1.90;;;;;;;;;;8233013;28;20022;-63
2023/03/09 19:32:05;;;;;;;10.07;1.58;;;;;;;;;;8232909;28;20117;-63
2023/03/09 19:36:06;;;;;;;4.97;1.97;;;;;;;;;;8230952;28;20978;-63
2023/03/09 19:40:06;;;;;;;9.55;1.58;;;;;;;;;;8234951;28;20030;-63
2023/03/09 19:44:07;;;;;;;8.07;1.63;;;;;;;;;;8233309;28;20029;-63
2023/03/09 19:48:08;;;;;;;11.35;2.75;;;;;;;;;;8234829;28;20048;-63
2023/03/09 19:52:09;;;;;;;6.85;1.92;;;;;;;;;;8234737;28;20081;-63
2023/03/09 19:56:10;;;;;;;7.93;2.00;;;;;;;;;;8232699;28;20030;-63
2023/03/09 20:00:11;;;;;;;7.15;1.95;;;;;;;;;;8233881;28;20270;-63
2023/03/09 20:04:13;;;;;;;9.65;2.05;;;;;;;;;;8231058;28;20740;-63
2023/03/09 20:08:13;;;;;;;6.80;2.00;;;;;;;;;;8232502;28;20088;-63
2023/03/09 20:12:13;;;;;;;10.13;1.90;;;;;;;;;;8229228;28;20594;-63
2023/03/09 20:16:14;;;;;;;9.98;1.77;;;;;;;;;;8232342;28;20043;-63
2023/03/09 20:20:14;;;;;;;7.10;1.42;;;;;;;;;;8227315;28;21029;-63
2023/03/09 20:24:16;;;;;;;7.28;1.70;;;;;;;;;;8233070;28;20049;-63
2023/03/09 20:28:17;;;;;;;8.82;2.28;;;;;;;;;;8230104;28;20034;-63
2023/03/09 20:32:17;;;;;;;9.98;2.30;;;;;;;;;;8231288;28;20816;-63
2023/03/09 20:36:18;;;;;;;6.97;1.40;;;;;;;;;;8231681;28;20084;-63
2023/03/09 20:40:18;;;;;;;5.45;1.40;;;;;;;;;;8230998;28;20112;-63
2023/03/09 20:44:18;;;;;;;5.30;1.47;;;;;;;;;;8233785;28;20097;-63
2023/03/09 20:48:18;;;;;;;7.18;1.55;;;;;;;;;;8235902;28;20047;-63
2023/03/09 20:52:18;;;;;;;3.42;1.15;;;;;;;;;;8240859;28;20370;-63
2023/03/09 20:56:20;;;;;;;8.35;1.63;;;;;;;;;;8256636;23;20104;-75
2023/03/09 21:00:22;;;;;;;4.13;1.33;;;;;;;;;;8256275;28;20029;-74
2023/03/09 21:04:22;;;;;;;3.90;1.17;;;;;;;;;;8261149;28;20026;-75
2023/03/09 21:08:22;;;;;;;6.15;1.40;;;;;;;;;;8236888;28;20892;-75
2023/03/09 21:12:22;;;;;;;3.53;1.13;;;;;;;;;;8238249;28;20066;-76
2023/03/09 21:16:23;;;;;;;5.40;1.50;;;;;;;;;;8240230;28;20042;-76
2023/03/09 21:20:23;;;;;;;7.47;1.70;;;;;;;;;;8240759;28;20280;-76
2023/03/09 21:24:23;;;;;;;2.92;1.30;;;;;;;;;;8250069;28;20545;-76
2023/03/09 21:28:23;;;;;;;5.25;1.20;;;;;;;;;;8240737;28;20034;-76
2023/03/09 21:32:23;;;;;;;5.15;1.20;;;;;;;;;;8241022;28;20042;-77
2023/03/09 21:36:24;;;;;;;4.60;1.10;;;;;;;;;;8241450;28;20136;-77
2023/03/09 21:40:25;;;;;;;4.15;1.25;;;;;;;;;;8253005;28;20064;-77
2023/03/09 21:44:25;;;;;;;4.10;1.27;;;;;;;;;;8242452;28;20022;-77
2023/03/09 21:48:25;;;;;;;5.90;1.20;;;;;;;;;;8246240;28;20457;-77
2023/03/09 21:52:26;;;;;;;4.93;1.65;;;;;;;;;;8246557;28;20283;-77
2023/03/09 21:56:26;;;;;;;4.40;1.25;;;;;;;;;;8252215;28;20030;-77
2023/03/09 22:00:28;;;;;;;3.67;1.10;;;;;;;;;;8244599;28;20116;-77
2023/03/09 22:04:32;;;;;;;2.17;1.02;;;;;;;;;;8251911;28;20046;-77
2023/03/09 22:08:32;;;;;;;;;;;;;;;;;;8244381;28;20026;-77
2023/03/09 22:12:32;;;;;;;4.00;1.20;;;;;;;;;;8257870;28;19918;-77
2023/03/09 22:16:35;;;;;;;3.30;1.10;;;;;;;;;;8241780;28;20034;-77
2023/03/09 22:20:36;;;;;;;2.90;1.30;;;;;;;;;;8241309;28;20072;-77
2023/03/09 22:24:36;;;;;;;3.35;1.20;;;;;;;;;;8238566;28;20022;-77
2023/03/09 22:28:36;;;;;;;2.17;1.00;;;;;;;;;;8242255;28;20022;-77
2023/03/09 22:32:36;;;;;;;1.95;0.88;;;;;;;;;;8240547;28;20563;-77
2023/03/09 22:36:37;;;;;;;1.58;0.82;;;;;;;;;;8241469;28;20487;-77
2023/03/09 22:40:38;;;;;;;4.78;1.05;;;;;;;;;;8239085;28;20751;-77
2023/03/09 22:44:39;;;;;;;2.25;1.35;;;;;;;;;;8240486;28;20032;-77
2023/03/09 22:48:39;;;;;;;5.60;1.10;;;;;;;;;;8249810;28;20038;-77
2023/03/09 22:52:39;;;;;;;1.20;0.90;;;;;;;;;;8241032;28;20030;-76
2023/03/09 22:56:40;;;;;;;3.20;0.90;;;;;;;;;;8240471;28;20288;-77
2023/03/09 23:00:41;;;;;;;1.60;0.90;;;;;;;;;;8238760;28;21011;-77
2023/03/09 23:04:41;;;;;;;2.40;1.08;;;;;;;;;;8240038;28;20021;-77
2023/03/09 23:08:41;;;;;;;2.58;0.90;;;;;;;;;;8239505;28;20306;-77
2023/03/09 23:12:41;;;;;;;4.65;0.80;;;;;;;;;;8239709;28;20057;-77
2023/03/09 23:16:42;;;;;;;3.30;0.75;;;;;;;;;;8243540;28;20631;-77
2023/03/09 23:20:42;;;;;;;3.33;0.90;;;;;;;;;;8239910;28;20025;-77
2023/03/09 23:24:43;;;;;;;0.90;0.70;;;;;;;;;;8252760;28;20029;-77
2023/03/09 23:28:44;;;;;;;2.15;0.70;;;;;;;;;;8244606;28;20023;-77
2023/03/09 23:32:44;;;;;;;1.38;0.80;;;;;;;;;;8236188;28;20044;-77
2023/03/09 23:36:44;;;;;;;2.88;0.82;;;;;;;;;;8239904;28;20152;-77
2023/03/09 23:40:44;;;;;;;0.75;0.70;;;;;;;;;;8239145;28;20102;-77
2023/03/09 23:44:45;;;;;;;1.98;0.90;;;;;;;;;;8246234;28;20022;-77
2023/03/09 23:48:48;;;;;;;0.70;0.70;;;;;;;;;;8237609;28;20586;-77
2023/03/09 23:52:49;;;;;;;0.85;0.80;;;;;;;;;;8244225;28;20034;-77
2023/03/09 23:56:49;;;;;;;3.17;1.00;;;;;;;;;;8240655;28;20033;-77
